sensor_id;sensor_type;location;lat;lon;timestamp;temperature;humidity
9403;DHT22;4741;49.834;10.740;2023-12-20T00:01:51;5.50;99.90
9403;DHT22;4741;49.834;10.740;2023-12-20T00:04:18;4.50;99.90
9403;DHT22;4741;49.834;10.740;2023-12-20T00:06:45;4.50;99.90
9403;DHT22;4741;49.834;10.740;2023-12-20T00:09:11;4.50;99.90
9403;DHT22;4741;49.834;10.740;2023-12-20T00:11:38;4.50;99.90
9403;DHT22;4741;49.834;10.740;2023-12-20T00:14:05;4.50;99.90
9403;DHT22;4741;49.834;10.740;2023-12-20T00:16:31;4.50;99.90
9403;DHT22;4741;49.834;10.740;2023-12-20T00:18:58;4.40;99.90
9403;DHT22;4741;49.834;10.740;2023-12-20T00:21:25;4.40;99.90
9403;DHT22;4741;49.834;10.740;2023-12-20T00:23:52;4.50;99.90
9403;DHT22;4741;49.834;10.740;2023-12-20T00:26:18;4.50;99.90
9403;DHT22;4741;49.834;10.740;2023-12-20T00:28:45;4.50;99.90
9403;DHT22;4741;49.834;10.740;2023-12-20T00:31:12;4.50;99.90
9403;DHT22;4741;49.834;10.740;2023-12-20T00:33:39;4.40;99.90
9403;DHT22;4741;49.834;10.740;2023-12-20T00:36:10;4.50;99.90
9403;DHT22;4741;49.834;10.740;2023-12-20T00:38:37;4.50;99.90
9403;DHT22;4741;49.834;10.740;2023-12-20T00:41:03;4.50;99.90
9403;DHT22;4741;49.834;10.740;2023-12-20T00:43:30;4.40;99.90
9403;DHT22;4741;49.834;10.740;2023-12-20T00:45:57;4.40;99.90
9403;DHT22;4741;49.834;10.740;2023-12-20T00:48:26;4.30;99.90
9403;DHT22;4741;49.834;10.740;2023-12-20T00:50:57;4.50;99.90
9403;DHT22;4741;49.834;10.740;2023-12-20T00:53:24;4.40;99.90
9403;DHT22;4741;49.834;10.740;2023-12-20T00:55:51;4.50;99.90
9403;DHT22;4741;49.834;10.740;2023-12-20T00:58:18;4.20;99.90
9403;DHT22;4741;49.834;10.740;2023-12-20T01:00:44;5.00;99.90
9403;DHT22;4741;49.834;10.740;2023-12-20T01:03:12;4.40;99.90
9403;DHT22;4741;49.834;10.740;2023-12-20T01:05:38;4.40;99.90
9403;DHT22;4741;49.834;10.740;2023-12-20T01:08:05;4.50;99.90
9403;DHT22;4741;49.834;10.740;2023-12-20T01:10:32;4.50;99.90
9403;DHT22;4741;49.834;10.740;2023-12-20T01:12:59;4.40;99.90
9403;DHT22;4741;49.834;10.740;2023-12-20T01:15:26;4.30;99.90
9403;DHT22;4741;49.834;10.740;2023-12-20T01:17:52;4.40;99.90
9403;DHT22;4741;49.834;10.740;2023-12-20T01:20:19;4.40;99.90
9403;DHT22;4741;49.834;10.740;2023-12-20T01:22:47;4.80;99.90
9403;DHT22;4741;49.834;10.740;2023-12-20T01:25:13;4.40;99.90
9403;DHT22;4741;49.834;10.740;2023-12-20T01:27:40;4.40;99.90
9403;DHT22;4741;49.834;10.740;2023-12-20T01:30:07;4.40;99.90
9403;DHT22;4741;49.834;10.740;2023-12-20T01:32:34;4.40;99.90
9403;DHT22;4741;49.834;10.740;2023-12-20T01:35:01;4.40;99.90
9403;DHT22;4741;49.834;10.740;2023-12-20T01:37:29;5.00;99.90
9403;DHT22;4741;49.834;10.740;2023-12-20T01:39:56;4.20;99.90
9403;DHT22;4741;49.834;10.740;2023-12-20T01:42:23;4.20;99.90
9403;DHT22;4741;49.834;10.740;2023-12-20T01:44:49;4.70;99.90
9403;DHT22;4741;49.834;10.740;2023-12-20T01:47:16;4.20;99.90
9403;DHT22;4741;49.834;10.740;2023-12-20T01:49:43;4.20;99.90
9403;DHT22;4741;49.834;10.740;2023-12-20T01:52:10;4.20;99.90
9403;DHT22;4741;49.834;10.740;2023-12-20T01:54:39;4.10;99.90
9403;DHT22;4741;49.834;10.740;2023-12-20T01:57:06;4.20;99.90
9403;DHT22;4741;49.834;10.740;2023-12-20T01:59:34;4.10;99.90
9403;DHT22;4741;49.834;10.740;2023-12-20T02:02:01;4.30;99.90
9403;DHT22;4741;49.834;10.740;2023-12-20T02:04:29;4.20;99.90
9403;DHT22;4741;49.834;10.740;2023-12-20T02:06:56;4.10;99.90
9403;DHT22;4741;49.834;10.740;2023-12-20T02:09:24;4.10;99.90
9403;DHT22;4741;49.834;10.740;2023-12-20T02:11:50;4.20;99.90
9403;DHT22;4741;49.834;10.740;2023-12-20T02:14:17;4.20;99.90
9403;DHT22;4741;49.834;10.740;2023-12-20T02:16:44;4.80;99.90
9403;DHT22;4741;49.834;10.740;2023-12-20T02:19:13;4.10;99.90
9403;DHT22;4741;49.834;10.740;2023-12-20T02:21:40;4.20;99.90
9403;DHT22;4741;49.834;10.740;2023-12-20T02:24:07;4.10;99.90
9403;DHT22;4741;49.834;10.740;2023-12-20T02:26:33;4.00;99.90
9403;DHT22;4741;49.834;10.740;2023-12-20T02:29:00;4.00;99.90
9403;DHT22;4741;49.834;10.740;2023-12-20T02:31:27;4.00;99.90
9403;DHT22;4741;49.834;10.740;2023-12-20T02:33:53;4.10;99.90
9403;DHT22;4741;49.834;10.740;2023-12-20T02:36:20;4.10;99.90
9403;DHT22;4741;49.834;10.740;2023-12-20T02:38:47;4.10;99.90
9403;DHT22;4741;49.834;10.740;2023-12-20T02:41:14;4.10;99.90
9403;DHT22;4741;49.834;10.740;2023-12-20T02:43:43;4.10;99.90
9403;DHT22;4741;49.834;10.740;2023-12-20T02:46:10;4.70;99.90
9403;DHT22;4741;49.834;10.740;2023-12-20T02:48:37;4.10;99.90
9403;DHT22;4741;49.834;10.740;2023-12-20T02:51:04;4.10;99.90
9403;DHT22;4741;49.834;10.740;2023-12-20T02:53:31;4.10;99.90
9403;DHT22;4741;49.834;10.740;2023-12-20T02:55:57;4.10;99.90
9403;DHT22;4741;49.834;10.740;2023-12-20T02:58:24;4.00;99.90
9403;DHT22;4741;49.834;10.740;2023-12-20T03:00:51;4.00;99.90
9403;DHT22;4741;49.834;10.740;2023-12-20T03:03:18;4.00;99.90
9403;DHT22;4741;49.834;10.740;2023-12-20T03:05:45;4.00;99.90
9403;DHT22;4741;49.834;10.740;2023-12-20T03:08:12;4.00;99.90
9403;DHT22;4741;49.834;10.740;2023-12-20T03:10:39;3.90;99.90
9403;DHT22;4741;49.834;10.740;2023-12-20T03:13:06;3.90;99.90
9403;DHT22;4741;49.834;10.740;2023-12-20T03:15:33;3.90;99.90
9403;DHT22;4741;49.834;10.740;2023-12-20T03:17:59;3.90;99.90
9403;DHT22;4741;49.834;10.740;2023-12-20T03:20:26;3.90;99.90
9403;DHT22;4741;49.834;10.740;2023-12-20T03:22:53;3.90;99.90
9403;DHT22;4741;49.834;10.740;2023-12-20T03:25:20;3.90;99.90
9403;DHT22;4741;49.834;10.740;2023-12-20T03:27:46;3.90;99.90
9403;DHT22;4741;49.834;10.740;2023-12-20T03:30:14;3.80;99.90
9403;DHT22;4741;49.834;10.740;2023-12-20T03:32:41;3.80;99.90
9403;DHT22;4741;49.834;10.740;2023-12-20T03:35:08;3.70;99.90
9403;DHT22;4741;49.834;10.740;2023-12-20T03:37:34;3.70;99.90
9403;DHT22;4741;49.834;10.740;2023-12-20T03:40:01;3.70;99.90
9403;DHT22;4741;49.834;10.740;2023-12-20T03:42:28;3.70;99.90
9403;DHT22;4741;49.834;10.740;2023-12-20T03:44:55;3.70;99.90
9403;DHT22;4741;49.834;10.740;2023-12-20T03:47:22;3.70;99.90
9403;DHT22;4741;49.834;10.740;2023-12-20T03:49:48;3.70;99.90
9403;DHT22;4741;49.834;10.740;2023-12-20T03:52:15;3.60;99.90
9403;DHT22;4741;49.834;10.740;2023-12-20T03:54:42;3.70;99.90
9403;DHT22;4741;49.834;10.740;2023-12-20T03:57:09;3.70;99.90
9403;DHT22;4741;49.834;10.740;2023-12-20T03:59:36;3.60;99.90
9403;DHT22;4741;49.834;10.740;2023-12-20T04:02:03;3.60;99.90
9403;DHT22;4741;49.834;10.740;2023-12-20T04:04:30;3.70;99.90
9403;DHT22;4741;49.834;10.740;2023-12-20T04:06:57;3.50;99.90
9403;DHT22;4741;49.834;10.740;2023-12-20T04:09:23;3.50;99.90
9403;DHT22;4741;49.834;10.740;2023-12-20T04:11:51;3.50;99.90
9403;DHT22;4741;49.834;10.740;2023-12-20T04:14:17;3.60;99.90
9403;DHT22;4741;49.834;10.740;2023-12-20T04:16:44;3.60;99.90
9403;DHT22;4741;49.834;10.740;2023-12-20T04:19:13;3.40;99.90
9403;DHT22;4741;49.834;10.740;2023-12-20T04:21:40;3.60;99.90
9403;DHT22;4741;49.834;10.740;2023-12-20T04:24:07;3.60;99.90
9403;DHT22;4741;49.834;10.740;2023-12-20T04:26:33;4.20;99.90
9403;DHT22;4741;49.834;10.740;2023-12-20T04:29:00;3.60;99.90
9403;DHT22;4741;49.834;10.740;2023-12-20T04:31:27;3.50;99.90
9403;DHT22;4741;49.834;10.740;2023-12-20T04:33:53;3.60;99.90
9403;DHT22;4741;49.834;10.740;2023-12-20T04:36:20;3.60;99.90
9403;DHT22;4741;49.834;10.740;2023-12-20T04:38:47;3.70;99.90
9403;DHT22;4741;49.834;10.740;2023-12-20T04:41:14;3.70;99.90
9403;DHT22;4741;49.834;10.740;2023-12-20T04:43:45;3.50;99.90
9403;DHT22;4741;49.834;10.740;2023-12-20T04:46:11;4.40;99.90
9403;DHT22;4741;49.834;10.740;2023-12-20T04:48:38;3.70;99.90
9403;DHT22;4741;49.834;10.740;2023-12-20T04:51:05;3.60;99.90
9403;DHT22;4741;49.834;10.740;2023-12-20T04:53:32;3.70;99.90
9403;DHT22;4741;49.834;10.740;2023-12-20T04:55:59;3.70;99.90
9403;DHT22;4741;49.834;10.740;2023-12-20T04:58:26;3.70;99.90
9403;DHT22;4741;49.834;10.740;2023-12-20T05:00:52;3.70;99.90
9403;DHT22;4741;49.834;10.740;2023-12-20T05:03:19;3.60;99.90
9403;DHT22;4741;49.834;10.740;2023-12-20T05:05:46;3.60;99.90
9403;DHT22;4741;49.834;10.740;2023-12-20T05:08:12;3.60;99.90
9403;DHT22;4741;49.834;10.740;2023-12-20T05:10:39;3.70;99.90
9403;DHT22;4741;49.834;10.740;2023-12-20T05:13:06;3.60;99.90
9403;DHT22;4741;49.834;10.740;2023-12-20T05:15:34;3.70;99.90
9403;DHT22;4741;49.834;10.740;2023-12-20T05:18:01;3.80;99.90
9403;DHT22;4741;49.834;10.740;2023-12-20T05:20:27;3.70;99.90
9403;DHT22;4741;49.834;10.740;2023-12-20T05:22:59;3.80;99.90
9403;DHT22;4741;49.834;10.740;2023-12-20T05:25:26;3.80;99.90
9403;DHT22;4741;49.834;10.740;2023-12-20T05:27:55;3.70;99.90
9403;DHT22;4741;49.834;10.740;2023-12-20T05:30:25;3.80;99.90
9403;DHT22;4741;49.834;10.740;2023-12-20T05:32:51;3.80;99.90
9403;DHT22;4741;49.834;10.740;2023-12-20T05:35:18;3.80;99.90
9403;DHT22;4741;49.834;10.740;2023-12-20T05:37:46;3.80;99.90
9403;DHT22;4741;49.834;10.740;2023-12-20T05:40:13;3.80;99.90
9403;DHT22;4741;49.834;10.740;2023-12-20T05:42:39;3.80;99.90
9403;DHT22;4741;49.834;10.740;2023-12-20T05:45:06;3.80;99.90
9403;DHT22;4741;49.834;10.740;2023-12-20T05:47:33;3.80;99.90
9403;DHT22;4741;49.834;10.740;2023-12-20T05:50:00;3.60;99.90
9403;DHT22;4741;49.834;10.740;2023-12-20T05:52:27;3.70;99.90
9403;DHT22;4741;49.834;10.740;2023-12-20T05:54:53;3.70;99.90
9403;DHT22;4741;49.834;10.740;2023-12-20T05:57:20;3.70;99.90
9403;DHT22;4741;49.834;10.740;2023-12-20T05:59:47;3.70;99.90
9403;DHT22;4741;49.834;10.740;2023-12-20T06:02:13;3.60;99.90
9403;DHT22;4741;49.834;10.740;2023-12-20T06:04:41;3.80;99.90
9403;DHT22;4741;49.834;10.740;2023-12-20T06:07:10;3.70;99.90
9403;DHT22;4741;49.834;10.740;2023-12-20T06:09:38;3.70;99.90
9403;DHT22;4741;49.834;10.740;2023-12-20T06:12:05;3.70;99.90
9403;DHT22;4741;49.834;10.740;2023-12-20T06:14:32;3.70;99.90
9403;DHT22;4741;49.834;10.740;2023-12-20T06:16:58;3.70;99.90
9403;DHT22;4741;49.834;10.740;2023-12-20T06:19:25;3.70;99.90
9403;DHT22;4741;49.834;10.740;2023-12-20T06:21:52;3.70;99.90
9403;DHT22;4741;49.834;10.740;2023-12-20T06:24:19;3.80;99.90
9403;DHT22;4741;49.834;10.740;2023-12-20T06:26:46;3.80;99.90
9403;DHT22;4741;49.834;10.740;2023-12-20T06:29:12;3.70;99.90
9403;DHT22;4741;49.834;10.740;2023-12-20T06:31:39;3.70;99.90
9403;DHT22;4741;49.834;10.740;2023-12-20T06:34:06;3.70;99.90
9403;DHT22;4741;49.834;10.740;2023-12-20T06:36:33;3.80;99.90
9403;DHT22;4741;49.834;10.740;2023-12-20T06:38:59;3.80;99.90
9403;DHT22;4741;49.834;10.740;2023-12-20T06:41:26;3.70;99.90
9403;DHT22;4741;49.834;10.740;2023-12-20T06:43:53;3.90;99.90
9403;DHT22;4741;49.834;10.740;2023-12-20T06:46:20;3.80;99.90
9403;DHT22;4741;49.834;10.740;2023-12-20T06:48:46;3.80;99.90
9403;DHT22;4741;49.834;10.740;2023-12-20T06:51:16;3.70;99.90
9403;DHT22;4741;49.834;10.740;2023-12-20T06:53:44;3.70;99.90
9403;DHT22;4741;49.834;10.740;2023-12-20T06:56:11;3.70;99.90
9403;DHT22;4741;49.834;10.740;2023-12-20T06:58:43;3.70;99.90
9403;DHT22;4741;49.834;10.740;2023-12-20T07:01:13;3.50;99.90
9403;DHT22;4741;49.834;10.740;2023-12-20T07:03:40;3.70;99.90
9403;DHT22;4741;49.834;10.740;2023-12-20T07:06:08;3.70;99.90
9403;DHT22;4741;49.834;10.740;2023-12-20T07:08:35;3.60;99.90
9403;DHT22;4741;49.834;10.740;2023-12-20T07:11:01;3.60;99.90
9403;DHT22;4741;49.834;10.740;2023-12-20T07:13:29;3.60;99.90
9403;DHT22;4741;49.834;10.740;2023-12-20T07:15:56;3.70;99.90
9403;DHT22;4741;49.834;10.740;2023-12-20T07:18:23;3.50;99.90
9403;DHT22;4741;49.834;10.740;2023-12-20T07:20:50;3.60;99.90
9403;DHT22;4741;49.834;10.740;2023-12-20T07:23:16;3.40;99.90
9403;DHT22;4741;49.834;10.740;2023-12-20T07:25:43;3.60;99.90
9403;DHT22;4741;49.834;10.740;2023-12-20T07:28:10;3.60;99.90
9403;DHT22;4741;49.834;10.740;2023-12-20T07:30:37;3.70;99.90
9403;DHT22;4741;49.834;10.740;2023-12-20T07:33:04;3.60;99.90
9403;DHT22;4741;49.834;10.740;2023-12-20T07:35:31;3.80;99.90
9403;DHT22;4741;49.834;10.740;2023-12-20T07:37:57;3.80;99.90
9403;DHT22;4741;49.834;10.740;2023-12-20T07:40:24;3.80;99.90
9403;DHT22;4741;49.834;10.740;2023-12-20T07:42:51;3.90;99.90
9403;DHT22;4741;49.834;10.740;2023-12-20T07:45:18;3.80;99.90
9403;DHT22;4741;49.834;10.740;2023-12-20T07:47:45;3.90;99.90
9403;DHT22;4741;49.834;10.740;2023-12-20T07:50:12;4.00;99.90
9403;DHT22;4741;49.834;10.740;2023-12-20T07:52:39;4.40;99.90
9403;DHT22;4741;49.834;10.740;2023-12-20T07:55:06;4.10;99.90
9403;DHT22;4741;49.834;10.740;2023-12-20T07:57:33;4.10;99.90
9403;DHT22;4741;49.834;10.740;2023-12-20T07:59:59;4.00;99.90
9403;DHT22;4741;49.834;10.740;2023-12-20T08:02:26;4.20;99.90
9403;DHT22;4741;49.834;10.740;2023-12-20T08:04:53;4.10;99.90
9403;DHT22;4741;49.834;10.740;2023-12-20T08:07:19;4.10;99.90
9403;DHT22;4741;49.834;10.740;2023-12-20T08:09:46;4.10;99.90
9403;DHT22;4741;49.834;10.740;2023-12-20T08:12:13;4.00;99.90
9403;DHT22;4741;49.834;10.740;2023-12-20T08:14:40;3.90;99.90
9403;DHT22;4741;49.834;10.740;2023-12-20T08:17:06;3.80;99.90
9403;DHT22;4741;49.834;10.740;2023-12-20T08:19:33;4.00;99.90
9403;DHT22;4741;49.834;10.740;2023-12-20T08:22:00;3.90;99.90
9403;DHT22;4741;49.834;10.740;2023-12-20T08:24:27;4.80;99.90
9403;DHT22;4741;49.834;10.740;2023-12-20T08:26:53;4.30;99.90
9403;DHT22;4741;49.834;10.740;2023-12-20T08:29:20;4.40;99.90
9403;DHT22;4741;49.834;10.740;2023-12-20T08:31:51;4.40;99.90
9403;DHT22;4741;49.834;10.740;2023-12-20T08:34:18;4.30;99.90
9403;DHT22;4741;49.834;10.740;2023-12-20T08:36:45;4.20;99.90
9403;DHT22;4741;49.834;10.740;2023-12-20T08:39:12;4.80;99.90
9403;DHT22;4741;49.834;10.740;2023-12-20T08:41:39;4.50;99.90
9403;DHT22;4741;49.834;10.740;2023-12-20T08:44:06;4.60;99.90
9403;DHT22;4741;49.834;10.740;2023-12-20T08:46:33;4.70;99.90
9403;DHT22;4741;49.834;10.740;2023-12-20T08:49:00;4.40;99.90
9403;DHT22;4741;49.834;10.740;2023-12-20T08:51:27;4.50;99.90
9403;DHT22;4741;49.834;10.740;2023-12-20T08:53:54;4.20;99.90
9403;DHT22;4741;49.834;10.740;2023-12-20T08:56:21;4.50;99.90
9403;DHT22;4741;49.834;10.740;2023-12-20T08:58:48;4.90;99.90
9403;DHT22;4741;49.834;10.740;2023-12-20T09:01:14;4.70;99.90
9403;DHT22;4741;49.834;10.740;2023-12-20T09:03:41;5.40;99.90
9403;DHT22;4741;49.834;10.740;2023-12-20T09:06:08;4.70;99.90
9403;DHT22;4741;49.834;10.740;2023-12-20T09:08:35;5.20;99.90
9403;DHT22;4741;49.834;10.740;2023-12-20T09:11:01;5.30;99.90
9403;DHT22;4741;49.834;10.740;2023-12-20T09:13:29;5.40;99.90
9403;DHT22;4741;49.834;10.740;2023-12-20T09:15:55;5.60;99.90
9403;DHT22;4741;49.834;10.740;2023-12-20T09:18:23;6.00;99.90
9403;DHT22;4741;49.834;10.740;2023-12-20T09:20:50;5.20;99.90
9403;DHT22;4741;49.834;10.740;2023-12-20T09:23:17;5.70;99.90
9403;DHT22;4741;49.834;10.740;2023-12-20T09:25:44;5.10;99.90
9403;DHT22;4741;49.834;10.740;2023-12-20T09:28:11;4.90;99.90
9403;DHT22;4741;49.834;10.740;2023-12-20T09:30:38;5.00;99.90
9403;DHT22;4741;49.834;10.740;2023-12-20T09:33:07;5.10;99.90
9403;DHT22;4741;49.834;10.740;2023-12-20T09:35:35;6.40;99.90
9403;DHT22;4741;49.834;10.740;2023-12-20T09:38:02;5.10;99.90
9403;DHT22;4741;49.834;10.740;2023-12-20T09:40:29;5.30;99.90
9403;DHT22;4741;49.834;10.740;2023-12-20T09:42:57;5.30;99.90
9403;DHT22;4741;49.834;10.740;2023-12-20T09:45:25;6.10;99.90
9403;DHT22;4741;49.834;10.740;2023-12-20T09:47:58;5.50;99.90
9403;DHT22;4741;49.834;10.740;2023-12-20T09:50:25;5.20;99.90
9403;DHT22;4741;49.834;10.740;2023-12-20T09:52:53;5.30;99.90
9403;DHT22;4741;49.834;10.740;2023-12-20T09:55:20;4.90;99.90
9403;DHT22;4741;49.834;10.740;2023-12-20T09:57:48;5.70;99.90
9403;DHT22;4741;49.834;10.740;2023-12-20T10:00:16;5.00;99.90
9403;DHT22;4741;49.834;10.740;2023-12-20T10:02:50;5.10;99.90
9403;DHT22;4741;49.834;10.740;2023-12-20T10:05:23;5.10;99.90
9403;DHT22;4741;49.834;10.740;2023-12-20T10:07:52;5.00;99.90
9403;DHT22;4741;49.834;10.740;2023-12-20T10:10:19;4.70;99.90
9403;DHT22;4741;49.834;10.740;2023-12-20T10:13:00;5.00;99.90
9403;DHT22;4741;49.834;10.740;2023-12-20T10:15:27;5.20;99.90
9403;DHT22;4741;49.834;10.740;2023-12-20T10:17:54;5.20;99.90
9403;DHT22;4741;49.834;10.740;2023-12-20T10:20:26;5.50;99.90
9403;DHT22;4741;49.834;10.740;2023-12-20T10:22:55;5.20;99.90
9403;DHT22;4741;49.834;10.740;2023-12-20T10:25:23;4.30;99.90
9403;DHT22;4741;49.834;10.740;2023-12-20T10:27:50;5.00;99.90
9403;DHT22;4741;49.834;10.740;2023-12-20T10:30:18;5.30;99.90
9403;DHT22;4741;49.834;10.740;2023-12-20T10:32:44;5.30;99.90
9403;DHT22;4741;49.834;10.740;2023-12-20T10:35:11;5.40;99.90
9403;DHT22;4741;49.834;10.740;2023-12-20T10:37:38;5.30;99.90
9403;DHT22;4741;49.834;10.740;2023-12-20T10:40:05;5.40;99.90
9403;DHT22;4741;49.834;10.740;2023-12-20T10:42:32;5.70;99.90
9403;DHT22;4741;49.834;10.740;2023-12-20T10:45:00;5.50;99.90
9403;DHT22;4741;49.834;10.740;2023-12-20T10:47:27;5.40;99.90
9403;DHT22;4741;49.834;10.740;2023-12-20T10:49:54;5.20;99.90
9403;DHT22;4741;49.834;10.740;2023-12-20T10:52:23;5.40;99.90
9403;DHT22;4741;49.834;10.740;2023-12-20T10:54:50;5.40;99.90
9403;DHT22;4741;49.834;10.740;2023-12-20T10:57:17;5.40;99.90
9403;DHT22;4741;49.834;10.740;2023-12-20T10:59:44;6.50;99.90
9403;DHT22;4741;49.834;10.740;2023-12-20T11:02:16;5.30;99.90
9403;DHT22;4741;49.834;10.740;2023-12-20T11:07:30;5.70;99.90
9403;DHT22;4741;49.834;10.740;2023-12-20T11:10:00;5.70;99.90
9403;DHT22;4741;49.834;10.740;2023-12-20T11:12:31;6.00;99.90
9403;DHT22;4741;49.834;10.740;2023-12-20T11:15:00;5.90;99.90
9403;DHT22;4741;49.834;10.740;2023-12-20T11:17:45;6.10;99.90
9403;DHT22;4741;49.834;10.740;2023-12-20T11:20:21;6.10;99.90
9403;DHT22;4741;49.834;10.740;2023-12-20T11:22:53;6.10;99.90
9403;DHT22;4741;49.834;10.740;2023-12-20T11:25:20;6.10;99.90
9403;DHT22;4741;49.834;10.740;2023-12-20T11:30:56;6.10;99.90
9403;DHT22;4741;49.834;10.740;2023-12-20T11:33:25;5.90;99.90
9403;DHT22;4741;49.834;10.740;2023-12-20T11:35:56;7.00;99.90
9403;DHT22;4741;49.834;10.740;2023-12-20T11:38:23;5.70;99.90
9403;DHT22;4741;49.834;10.740;2023-12-20T11:40:50;5.70;99.90
9403;DHT22;4741;49.834;10.740;2023-12-20T11:43:30;5.50;99.90
9403;DHT22;4741;49.834;10.740;2023-12-20T11:46:02;5.70;99.90
9403;DHT22;4741;49.834;10.740;2023-12-20T11:48:29;5.60;99.90
9403;DHT22;4741;49.834;10.740;2023-12-20T11:50:57;5.50;99.90
9403;DHT22;4741;49.834;10.740;2023-12-20T11:53:24;5.30;99.90
9403;DHT22;4741;49.834;10.740;2023-12-20T11:55:51;5.40;99.90
9403;DHT22;4741;49.834;10.740;2023-12-20T11:58:18;5.40;99.90
9403;DHT22;4741;49.834;10.740;2023-12-20T12:00:44;5.20;99.90
9403;DHT22;4741;49.834;10.740;2023-12-20T12:03:14;5.30;99.90
9403;DHT22;4741;49.834;10.740;2023-12-20T12:05:41;5.00;99.90
9403;DHT22;4741;49.834;10.740;2023-12-20T12:08:07;5.20;99.90
9403;DHT22;4741;49.834;10.740;2023-12-20T12:10:34;5.20;99.90
9403;DHT22;4741;49.834;10.740;2023-12-20T12:13:01;5.90;99.90
9403;DHT22;4741;49.834;10.740;2023-12-20T12:15:29;5.10;99.90
9403;DHT22;4741;49.834;10.740;2023-12-20T12:17:57;5.20;99.90
9403;DHT22;4741;49.834;10.740;2023-12-20T12:20:25;5.10;99.90
9403;DHT22;4741;49.834;10.740;2023-12-20T12:25:29;5.30;99.90
9403;DHT22;4741;49.834;10.740;2023-12-20T12:28:00;5.30;99.90
9403;DHT22;4741;49.834;10.740;2023-12-20T12:30:27;5.30;99.90
9403;DHT22;4741;49.834;10.740;2023-12-20T12:33:04;5.20;99.90
9403;DHT22;4741;49.834;10.740;2023-12-20T12:35:31;5.30;99.90
9403;DHT22;4741;49.834;10.740;2023-12-20T12:38:01;5.70;99.90
9403;DHT22;4741;49.834;10.740;2023-12-20T12:40:29;6.70;99.90
9403;DHT22;4741;49.834;10.740;2023-12-20T12:42:56;5.20;99.90
9403;DHT22;4741;49.834;10.740;2023-12-20T12:45:26;5.40;99.90
9403;DHT22;4741;49.834;10.740;2023-12-20T12:47:54;5.30;99.90
9403;DHT22;4741;49.834;10.740;2023-12-20T12:50:21;5.30;99.90
9403;DHT22;4741;49.834;10.740;2023-12-20T12:52:48;5.40;99.90
9403;DHT22;4741;49.834;10.740;2023-12-20T12:55:15;5.30;99.90
9403;DHT22;4741;49.834;10.740;2023-12-20T12:57:42;5.20;99.90
9403;DHT22;4741;49.834;10.740;2023-12-20T13:00:10;5.10;99.90
9403;DHT22;4741;49.834;10.740;2023-12-20T13:02:37;5.30;99.90
9403;DHT22;4741;49.834;10.740;2023-12-20T13:05:09;5.30;99.90
9403;DHT22;4741;49.834;10.740;2023-12-20T13:07:36;5.30;99.90
9403;DHT22;4741;49.834;10.740;2023-12-20T13:10:04;5.30;99.90
9403;DHT22;4741;49.834;10.740;2023-12-20T13:12:32;5.30;99.90
9403;DHT22;4741;49.834;10.740;2023-12-20T13:14:59;5.10;99.90
9403;DHT22;4741;49.834;10.740;2023-12-20T13:17:25;5.30;99.90
9403;DHT22;4741;49.834;10.740;2023-12-20T13:19:55;5.20;99.90
9403;DHT22;4741;49.834;10.740;2023-12-20T13:22:22;5.30;99.90
9403;DHT22;4741;49.834;10.740;2023-12-20T13:24:49;5.30;99.90
9403;DHT22;4741;49.834;10.740;2023-12-20T13:27:16;5.30;99.90
9403;DHT22;4741;49.834;10.740;2023-12-20T13:29:42;5.30;99.90
9403;DHT22;4741;49.834;10.740;2023-12-20T13:32:09;5.30;99.90
9403;DHT22;4741;49.834;10.740;2023-12-20T13:34:36;5.30;99.90
9403;DHT22;4741;49.834;10.740;2023-12-20T13:37:03;5.40;99.90
9403;DHT22;4741;49.834;10.740;2023-12-20T13:39:31;5.50;99.90
9403;DHT22;4741;49.834;10.740;2023-12-20T13:41:58;5.40;99.90
9403;DHT22;4741;49.834;10.740;2023-12-20T13:44:27;5.40;99.90
9403;DHT22;4741;49.834;10.740;2023-12-20T13:46:53;5.10;99.90
9403;DHT22;4741;49.834;10.740;2023-12-20T13:49:20;5.30;99.90
9403;DHT22;4741;49.834;10.740;2023-12-20T13:51:48;5.30;99.90
9403;DHT22;4741;49.834;10.740;2023-12-20T13:54:17;5.30;99.90
9403;DHT22;4741;49.834;10.740;2023-12-20T13:56:49;5.30;99.90
9403;DHT22;4741;49.834;10.740;2023-12-20T13:59:37;5.40;99.90
9403;DHT22;4741;49.834;10.740;2023-12-20T14:02:04;5.30;99.90
9403;DHT22;4741;49.834;10.740;2023-12-20T14:04:31;5.30;99.90
9403;DHT22;4741;49.834;10.740;2023-12-20T14:07:09;5.30;99.90
9403;DHT22;4741;49.834;10.740;2023-12-20T14:09:38;5.40;99.90
9403;DHT22;4741;49.834;10.740;2023-12-20T14:12:05;5.60;99.90
9403;DHT22;4741;49.834;10.740;2023-12-20T14:14:32;5.40;99.90
9403;DHT22;4741;49.834;10.740;2023-12-20T14:16:58;5.30;99.90
9403;DHT22;4741;49.834;10.740;2023-12-20T14:19:25;5.30;99.90
9403;DHT22;4741;49.834;10.740;2023-12-20T14:21:52;6.40;99.90
9403;DHT22;4741;49.834;10.740;2023-12-20T14:24:19;7.80;99.90
9403;DHT22;4741;49.834;10.740;2023-12-20T14:26:45;7.60;99.90
9403;DHT22;4741;49.834;10.740;2023-12-20T14:29:12;6.10;99.90
9403;DHT22;4741;49.834;10.740;2023-12-20T14:31:39;5.60;99.90
9403;DHT22;4741;49.834;10.740;2023-12-20T14:36:35;5.30;99.90
9403;DHT22;4741;49.834;10.740;2023-12-20T14:39:01;5.20;99.90
9403;DHT22;4741;49.834;10.740;2023-12-20T14:41:30;5.50;99.90
9403;DHT22;4741;49.834;10.740;2023-12-20T14:43:58;5.30;99.90
9403;DHT22;4741;49.834;10.740;2023-12-20T14:46:26;5.30;99.90
9403;DHT22;4741;49.834;10.740;2023-12-20T14:48:53;5.10;99.90
9403;DHT22;4741;49.834;10.740;2023-12-20T14:51:20;5.20;99.90
9403;DHT22;4741;49.834;10.740;2023-12-20T14:53:46;5.20;99.90
9403;DHT22;4741;49.834;10.740;2023-12-20T14:58:41;5.20;99.90
9403;DHT22;4741;49.834;10.740;2023-12-20T15:01:08;5.00;99.90
9403;DHT22;4741;49.834;10.740;2023-12-20T15:03:35;5.10;99.90
9403;DHT22;4741;49.834;10.740;2023-12-20T15:06:02;5.00;99.90
9403;DHT22;4741;49.834;10.740;2023-12-20T15:08:29;5.00;99.90
9403;DHT22;4741;49.834;10.740;2023-12-20T15:10:57;4.90;99.90
9403;DHT22;4741;49.834;10.740;2023-12-20T15:13:24;4.50;99.90
9403;DHT22;4741;49.834;10.740;2023-12-20T15:18:18;4.90;99.90
9403;DHT22;4741;49.834;10.740;2023-12-20T15:20:45;4.80;99.90
9403;DHT22;4741;49.834;10.740;2023-12-20T15:23:12;4.80;99.90
9403;DHT22;4741;49.834;10.740;2023-12-20T15:25:38;6.20;99.90
9403;DHT22;4741;49.834;10.740;2023-12-20T15:28:05;4.70;99.90
9403;DHT22;4741;49.834;10.740;2023-12-20T15:30:32;4.70;99.90
9403;DHT22;4741;49.834;10.740;2023-12-20T15:32:59;4.70;99.90
9403;DHT22;4741;49.834;10.740;2023-12-20T15:35:30;4.50;99.90
9403;DHT22;4741;49.834;10.740;2023-12-20T15:37:57;4.80;99.90
9403;DHT22;4741;49.834;10.740;2023-12-20T15:40:25;4.80;99.90
9403;DHT22;4741;49.834;10.740;2023-12-20T15:42:52;4.70;99.90
9403;DHT22;4741;49.834;10.740;2023-12-20T15:45:19;4.70;99.90
9403;DHT22;4741;49.834;10.740;2023-12-20T15:47:46;4.30;99.90
9403;DHT22;4741;49.834;10.740;2023-12-20T15:50:13;4.60;99.90
9403;DHT22;4741;49.834;10.740;2023-12-20T15:52:40;5.10;99.90
9403;DHT22;4741;49.834;10.740;2023-12-20T15:55:09;4.40;99.90
9403;DHT22;4741;49.834;10.740;2023-12-20T15:57:36;4.60;99.90
9403;DHT22;4741;49.834;10.740;2023-12-20T16:00:17;4.60;99.90
9403;DHT22;4741;49.834;10.740;2023-12-20T16:02:44;4.70;99.90
9403;DHT22;4741;49.834;10.740;2023-12-20T16:05:11;4.60;99.90
9403;DHT22;4741;49.834;10.740;2023-12-20T16:07:38;4.50;99.90
9403;DHT22;4741;49.834;10.740;2023-12-20T16:10:06;4.40;99.90
9403;DHT22;4741;49.834;10.740;2023-12-20T16:12:33;4.70;99.90
9403;DHT22;4741;49.834;10.740;2023-12-20T16:15:00;4.30;99.90
9403;DHT22;4741;49.834;10.740;2023-12-20T16:17:27;4.50;99.90
9403;DHT22;4741;49.834;10.740;2023-12-20T16:19:55;4.10;99.90